TimeCST,TemperatureF,Dew PointF,Humidity,Sea Level PressureIn,VisibilityMPH,Wind Direction,Wind SpeedMPH,Gust SpeedMPH,PrecipitationIn,Events,Conditions,WindDirDegrees,DateUTC
12:16 AM,12.2,10.4,92,29.81,10.0,SW,4.6,-,N/A,,Clear,230,2013-01-04 06:16:00
12:37 AM,14.0,10.4,86,29.82,10.0,WSW,5.8,-,N/A,,Scattered Clouds,240,2013-01-04 06:37:00
12:56 AM,15.8,12.2,86,29.82,10.0,West,5.8,-,N/A,,Scattered Clouds,260,2013-01-04 06:56:00
1:16 AM,15.8,12.2,86,29.82,10.0,WSW,6.9,-,N/A,,Clear,240,2013-01-04 07:16:00
1:37 AM,15.8,12.2,86,29.81,10.0,WSW,6.9,-,N/A,,Clear,240,2013-01-04 07:37:00
1:56 AM,15.8,12.2,86,29.81,10.0,WSW,8.1,-,N/A,,Clear,240,2013-01-04 07:56:00
2:16 AM,15.8,12.2,86,29.81,10.0,WSW,5.8,-,N/A,,Clear,240,2013-01-04 08:16:00
2:37 AM,15.8,12.2,86,29.82,10.0,WSW,5.8,-,N/A,,Clear,250,2013-01-04 08:37:00
2:56 AM,15.8,12.2,86,29.82,10.0,WSW,6.9,-,N/A,,Clear,240,2013-01-04 08:56:00
3:16 AM,15.8,12.2,86,29.82,10.0,WSW,6.9,-,N/A,,Clear,240,2013-01-04 09:16:00
3:37 AM,15.8,12.2,86,29.81,10.0,WSW,5.8,-,N/A,,Clear,240,2013-01-04 09:37:00
3:56 AM,14.0,10.4,86,29.83,10.0,West,5.8,-,N/A,,Clear,270,2013-01-04 09:56:00
4:16 AM,12.2,10.4,92,29.83,10.0,WSW,4.6,-,N/A,,Clear,250,2013-01-04 10:16:00
4:56 AM,12.2,10.4,92,29.84,10.0,WSW,3.5,-,N/A,,Clear,240,2013-01-04 10:56:00
5:16 AM,12.2,10.4,92,29.84,10.0,WSW,3.5,-,N/A,,Clear,250,2013-01-04 11:16:00
5:37 AM,12.2,10.4,92,29.85,10.0,WSW,4.6,-,N/A,,Clear,250,2013-01-04 11:37:00
5:56 AM,12.2,10.4,92,29.85,10.0,WSW,4.6,-,N/A,,Clear,240,2013-01-04 11:56:00
6:16 AM,12.2,10.4,92,29.85,10.0,SW,4.6,-,N/A,,Clear,230,2013-01-04 12:16:00
6:36 AM,12.2,10.4,92,29.85,10.0,WSW,4.6,-,N/A,,Clear,240,2013-01-04 12:36:00
6:56 AM,12.2,10.4,92,29.85,10.0,WSW,5.8,-,N/A,,Clear,240,2013-01-04 12:56:00
7:17 AM,10.4,8.6,92,29.86,10.0,West,4.6,-,N/A,,Clear,260,2013-01-04 13:17:00
7:36 AM,10.4,8.6,92,29.86,10.0,West,4.6,-,N/A,,Clear,260,2013-01-04 13:36:00
7:57 AM,8.6,6.8,92,29.87,10.0,West,3.5,-,N/A,,Clear,260,2013-01-04 13:57:00
8:16 AM,10.4,8.6,92,29.87,10.0,WSW,4.6,-,N/A,,Clear,240,2013-01-04 14:16:00
8:36 AM,10.4,8.6,92,29.88,10.0,WSW,4.6,-,N/A,,Clear,250,2013-01-04 14:36:00
8:57 AM,10.4,8.6,92,29.89,10.0,WSW,4.6,-,N/A,,Clear,250,2013-01-04 14:57:00
9:16 AM,14.0,10.4,86,29.90,10.0,West,5.8,-,N/A,,Clear,260,2013-01-04 15:16:00
9:36 AM,15.8,12.2,86,29.90,10.0,West,4.6,-,N/A,,Clear,260,2013-01-04 15:36:00
9:57 AM,17.6,12.2,79,29.91,10.0,West,6.9,-,N/A,,Clear,260,2013-01-04 15:57:00
10:16 AM,17.6,12.2,79,29.92,10.0,West,6.9,-,N/A,,Clear,270,2013-01-04 16:16:00
10:36 AM,19.4,15.8,86,29.93,10.0,West,8.1,-,N/A,,Clear,270,2013-01-04 16:36:00
10:57 AM,21.2,15.8,80,29.93,10.0,West,9.2,-,N/A,,Clear,270,2013-01-04 16:57:00
11:16 AM,23.0,17.6,80,29.94,10.0,West,8.1,-,N/A,,Clear,280,2013-01-04 17:16:00
11:36 AM,24.8,17.6,74,29.94,10.0,WNW,10.4,-,N/A,,Clear,290,2013-01-04 17:36:00
11:57 AM,24.8,17.6,74,29.94,10.0,WNW,10.4,16.1,N/A,,Clear,290,2013-01-04 17:57:00
12:16 PM,24.8,17.6,74,29.94,10.0,WNW,12.7,-,N/A,,Scattered Clouds,290,2013-01-04 18:16:00
12:36 PM,24.8,17.6,74,29.95,10.0,WNW,9.2,-,N/A,,Clear,290,2013-01-04 18:36:00
12:57 PM,24.8,19.4,80,29.95,10.0,NW,6.9,-,N/A,,Scattered Clouds,310,2013-01-04 18:57:00
1:16 PM,24.8,19.4,80,29.95,10.0,NW,8.1,-,N/A,,Scattered Clouds,320,2013-01-04 19:16:00
1:36 PM,24.8,19.4,80,29.95,10.0,WNW,9.2,16.1,N/A,,Scattered Clouds,300,2013-01-04 19:36:00
1:57 PM,24.8,19.4,80,29.96,10.0,WNW,8.1,-,N/A,,Scattered Clouds,300,2013-01-04 19:57:00
2:16 PM,24.8,19.4,80,29.96,10.0,WNW,9.2,-,N/A,,Mostly Cloudy,290,2013-01-04 20:16:00
2:36 PM,26.6,19.4,74,29.97,10.0,WNW,11.5,-,N/A,,Mostly Cloudy,290,2013-01-04 20:36:00
2:57 PM,24.8,19.4,80,29.98,10.0,WNW,11.5,-,N/A,,Mostly Cloudy,290,2013-01-04 20:57:00
3:16 PM,24.8,19.4,80,29.98,10.0,West,10.4,-,N/A,,Mostly Cloudy,280,2013-01-04 21:16:00
3:36 PM,24.8,19.4,80,30.00,10.0,WNW,10.4,16.1,N/A,,Mostly Cloudy,290,2013-01-04 21:36:00
3:57 PM,24.8,19.4,80,30.01,10.0,WNW,9.2,-,N/A,,Overcast,290,2013-01-04 21:57:00
4:16 PM,24.8,19.4,80,30.02,10.0,WNW,9.2,-,N/A,,Mostly Cloudy,290,2013-01-04 22:16:00
4:36 PM,24.8,19.4,80,30.02,10.0,WNW,5.8,-,N/A,,Scattered Clouds,300,2013-01-04 22:36:00
4:57 PM,21.2,19.4,93,30.02,10.0,Calm,Calm,-,N/A,,Clear,0,2013-01-04 22:57:00
5:16 PM,21.2,19.4,93,30.02,10.0,Calm,Calm,-,N/A,,Clear,0,2013-01-04 23:16:00
5:36 PM,17.6,15.8,93,30.03,10.0,Calm,Calm,-,N/A,,Clear,0,2013-01-04 23:36:00
5:57 PM,17.6,15.8,93,30.03,10.0,Calm,Calm,-,N/A,,Clear,0,2013-01-04 23:57:00
6:16 PM,14.0,12.2,93,30.03,10.0,Calm,Calm,-,N/A,,Clear,0,2013-01-05 00:16:00
6:37 PM,12.2,12.2,100,30.04,10.0,Calm,Calm,-,N/A,,Clear,0,2013-01-05 00:37:00
6:56 PM,10.4,10.4,100,30.05,7.0,Calm,Calm,-,N/A,,Clear,0,2013-01-05 00:56:00
7:17 PM,8.6,6.8,92,30.06,10.0,Calm,Calm,-,N/A,,Clear,0,2013-01-05 01:17:00
7:36 PM,8.6,6.8,92,30.06,10.0,Calm,Calm,-,N/A,,Clear,0,2013-01-05 01:36:00
7:56 PM,6.8,5.0,92,30.07,10.0,Calm,Calm,-,N/A,,Clear,0,2013-01-05 01:56:00
8:16 PM,6.8,5.0,92,30.07,10.0,Calm,Calm,-,N/A,,Clear,0,2013-01-05 02:16:00
8:36 PM,5.0,1.4,85,30.07,10.0,Calm,Calm,-,N/A,,Clear,0,2013-01-05 02:36:00
8:57 PM,3.2,1.4,92,30.05,10.0,Calm,Calm,-,N/A,,Clear,0,2013-01-05 02:57:00
9:16 PM,3.2,1.4,92,30.06,10.0,Calm,Calm,-,N/A,,Clear,0,2013-01-05 03:16:00
9:36 PM,1.4,-0.4,92,30.05,10.0,Calm,Calm,-,N/A,,Mostly Cloudy,0,2013-01-05 03:36:00
9:57 PM,1.4,-2.2,85,30.06,10.0,Calm,Calm,-,N/A,,Overcast,0,2013-01-05 03:57:00
10:16 PM,1.4,-2.2,85,30.05,10.0,Calm,Calm,-,N/A,,Scattered Clouds,0,2013-01-05 04:16:00
10:36 PM,-0.4,-2.2,92,30.05,10.0,Calm,Calm,-,N/A,,Clear,0,2013-01-05 04:36:00
10:57 PM,-0.4,-4.0,85,30.05,10.0,Calm,Calm,-,N/A,,Clear,0,2013-01-05 04:57:00
11:16 PM,-0.4,-4.0,85,30.04,10.0,Calm,Calm,-,N/A,,Clear,0,2013-01-05 05:16:00
11:36 PM,-2.2,-5.8,85,30.05,10.0,Calm,Calm,-,N/A,,Scattered Clouds,0,2013-01-05 05:36:00
11:57 PM,-2.2,-5.8,85,30.05,10.0,Calm,Calm,-,N/A,,Scattered Clouds,0,2013-01-05 05:57:00